< < Back
Terminal Aerodrome Forecast


Current Version              Previous Versions:   1  2  3  4  5  6  7  8  9  

Terminal Aerodrome Forecast

678
FTUS44 KMOB 041131
TAFPNS
TAF
KPNS 041131Z 0412/0512 31004KT P6SM SKC
     FM041800 24005KT P6SM VCTS SCT050CB
     FM050100 20002KT P6SM SKC=



Latest METAR

070
SAUS70 KWBC 050000 RRI
MTRPNS
METAR KPNS 042353Z 24009KT 10SM CLR 31/23 A2998 RMK AO2 SLP153 T03060228
10333 20306 55001


USA.gov is the U.S. government's official web portal to all federal, state and local government web resources and services.